Time;durP1;ratioP1;P1;durP2;ratioP2;P2;SDS_P1;SDS_P2;PMS_P1;PMS_P2;Temp;Humidity;BMP_temperature;BMP_pressure;BME280_temperature;BME280_humidity;BME280_pressure;Samples;Min_cycle;Max_cycle;Signal;HPM_P1;HPM_P2
2022/03/23 00:01:34;;;;;;;43.67;29.20;;;;;;;8.33;100.00;103180.88;5052397;28;20041;-34
2022/03/23 00:04:02;;;;;;;40.95;27.40;;;;;;;8.30;100.00;103180.22;5050880;28;20497;-31
2022/03/23 00:06:31;;;;;;;51.70;34.67;;;;;;;8.29;100.00;103183.22;5051249;28;20061;-34
2022/03/23 00:09:00;;;;;;;42.97;28.50;;;;;;;8.25;100.00;103181.97;5052515;28;20041;-31
2022/03/23 00:11:28;;;;;;;45.05;29.67;;;;;;;8.22;100.00;103188.00;5050618;28;20127;-35
2022/03/23 00:13:56;;;;;;;39.80;26.55;;;;;;;8.20;100.00;103179.00;5051379;28;20482;-32
2022/03/23 00:16:24;;;;;;;51.28;33.63;;;;;;;8.16;100.00;103184.19;5052319;28;20084;-30
2022/03/23 00:18:51;;;;;;;36.92;25.83;;;;;;;8.15;100.00;103187.22;5051791;28;20072;-32
2022/03/23 00:21:20;;;;;;;42.30;27.85;;;;;;;8.12;100.00;103182.09;5052018;28;20052;-31
2022/03/23 00:23:49;;;;;;;37.75;25.17;;;;;;;8.10;100.00;103181.47;5052150;28;20041;-28
2022/03/23 00:26:17;;;;;;;37.58;25.45;;;;;;;8.04;100.00;103180.44;5051388;28;20057;-30
2022/03/23 00:28:48;;;;;;;33.35;22.15;;;;;;;8.01;100.00;103185.59;5052063;28;20052;-29
2022/03/23 00:31:18;;;;;;;34.63;23.63;;;;;;;7.98;100.00;103180.50;5050609;28;20071;-35
2022/03/23 00:33:46;;;;;;;42.72;28.60;;;;;;;7.93;100.00;103183.94;5051312;28;20049;-31
2022/03/23 00:36:15;;;;;;;48.85;34.10;;;;;;;7.90;100.00;103179.69;5045829;28;20052;-30
2022/03/23 00:38:43;;;;;;;39.78;26.65;;;;;;;7.87;100.00;103174.56;5044665;28;20051;-30
2022/03/23 00:41:14;;;;;;;35.47;24.00;;;;;;;7.84;100.00;103174.16;5051141;28;20155;-31
2022/03/23 00:43:41;;;;;;;31.63;21.33;;;;;;;7.79;100.00;103172.06;5051826;28;20048;-35
2022/03/23 00:46:09;;;;;;;40.47;26.98;;;;;;;7.75;100.00;103176.38;5051875;28;20053;-30
2022/03/23 00:48:37;;;;;;;45.80;29.83;;;;;;;7.69;100.00;103168.91;5040268;28;20052;-28
2022/03/23 00:51:05;;;;;;;38.05;25.17;;;;;;;7.67;100.00;103179.41;5051783;28;20037;-30
2022/03/23 00:53:32;;;;;;;34.63;23.33;;;;;;;7.66;100.00;103179.63;5051899;28;20052;-29
2022/03/23 00:56:00;;;;;;;39.20;24.85;;;;;;;7.64;100.00;103179.84;5049245;28;20410;-31
2022/03/23 00:58:29;;;;;;;46.22;30.55;;;;;;;7.62;100.00;103176.44;5043335;28;20047;-31
2022/03/23 01:00:58;;;;;;;43.25;28.63;;;;;;;7.59;100.00;103174.13;5049338;28;20048;-31
2022/03/23 01:03:26;;;;;;;37.33;23.67;;;;;;;7.57;100.00;103176.28;5048659;28;20048;-27
2022/03/23 01:05:54;;;;;;;45.75;30.75;;;;;;;7.55;100.00;103179.28;5048235;28;20052;-32
2022/03/23 01:08:22;;;;;;;41.03;27.15;;;;;;;7.53;100.00;103172.22;5046974;28;20048;-33
2022/03/23 01:10:52;;;;;;;47.17;30.02;;;;;;;7.52;100.00;103176.09;5049941;28;20147;-31
2022/03/23 01:13:20;;;;;;;41.03;28.52;;;;;;;7.51;100.00;103174.38;5048665;28;20033;-32
2022/03/23 01:15:49;;;;;;;37.38;25.08;;;;;;;7.50;100.00;103170.75;5042274;28;20052;-27
2022/03/23 01:18:17;;;;;;;46.90;30.65;;;;;;;7.48;100.00;103172.03;5049671;28;20055;-29
2022/03/23 01:20:44;;;;;;;43.03;28.58;;;;;;;7.46;100.00;103168.63;5051400;28;20049;-31
2022/03/23 01:23:12;;;;;;;41.13;27.20;;;;;;;7.43;100.00;103167.16;5050503;28;20052;-34
2022/03/23 01:25:42;;;;;;;40.97;27.77;;;;;;;7.41;100.00;103163.72;5051360;28;20045;-28
2022/03/23 01:28:09;;;;;;;46.67;30.60;;;;;;;7.39;100.00;103167.84;5049763;28;20061;-33
2022/03/23 01:30:38;;;;;;;40.25;25.90;;;;;;;7.36;100.00;103159.94;5050483;28;20498;-29
2022/03/23 01:33:07;;;;;;;39.47;25.88;;;;;;;7.35;100.00;103166.56;5050335;28;20055;-35
2022/03/23 01:35:34;;;;;;;42.53;27.88;;;;;;;7.32;100.00;103165.06;5049278;28;20041;-27
2022/03/23 01:38:02;;;;;;;40.97;27.33;;;;;;;7.30;100.00;103164.44;5043427;28;20132;-33
2022/03/23 01:40:30;;;;;;;37.83;24.52;;;;;;;7.29;100.00;103164.66;5055332;28;20063;-29
2022/03/23 01:42:58;;;;;;;40.20;25.27;;;;;;;7.26;100.00;103160.41;5055328;28;20041;-27
2022/03/23 01:45:27;;;;;;;38.00;25.63;;;;;;;7.23;100.00;103161.69;5054537;28;20048;-30
2022/03/23 01:47:55;;;;;;;41.05;27.60;;;;;;;7.22;100.00;103167.47;5051486;28;20057;-33
2022/03/23 01:50:24;;;;;;;45.35;28.60;;;;;;;7.20;100.00;103162.13;5054387;28;20045;-34
2022/03/23 01:52:52;;;;;;;42.03;25.00;;;;;;;7.18;100.00;103163.44;5054914;28;20045;-31
2022/03/23 01:55:20;;;;;;;37.70;24.98;;;;;;;7.15;100.00;103161.97;5049006;28;20470;-34
2022/03/23 01:57:52;;;;;;;36.00;24.48;;;;;;;7.12;100.00;103159.63;5052437;28;20067;-34
2022/03/23 02:00:21;;;;;;;38.72;26.05;;;;;;;7.10;100.00;103160.91;5055054;28;20045;-26
2022/03/23 02:02:49;;;;;;;39.97;26.05;;;;;;;7.04;100.00;103157.06;5054785;28;20084;-32
2022/03/23 02:05:17;;;;;;;34.88;22.42;;;;;;;7.02;100.00;103155.59;5052526;28;20131;-31
2022/03/23 02:07:55;;;;;;;33.40;21.02;;;;;;;6.98;100.00;103151.56;5046063;28;20179;-30
2022/03/23 02:10:28;;;;;;;37.40;23.83;;;;;;;6.95;100.00;103154.78;5052248;28;20068;-37
2022/03/23 02:13:09;;;;;;;39.20;24.98;;;;;;;6.90;100.00;103147.94;5040390;28;20041;-34
2022/03/23 02:15:37;;;;;;;45.42;29.08;;;;;;;6.88;100.00;103150.09;5051086;28;20099;-32
2022/03/23 02:18:06;;;;;;;38.70;25.52;;;;;;;6.86;100.00;103159.69;5054668;28;20131;-29
2022/03/23 02:20:36;;;;;;;36.95;24.80;;;;;;;6.84;100.00;103161.84;5052550;28;20414;-31
2022/03/23 02:23:08;;;;;;;33.75;22.48;;;;;;;6.80;100.00;103146.69;5046600;28;20084;-29
2022/03/23 02:25:36;;;;;;;34.58;22.83;;;;;;;6.77;100.00;103149.94;5053683;28;20418;-34
2022/03/23 02:28:04;;;;;;;35.50;23.45;;;;;;;6.72;100.00;103142.25;5054268;28;20509;-36
2022/03/23 02:30:32;;;;;;;37.63;23.48;;;;;;;6.69;100.00;103141.81;5053024;28;20064;-34
2022/03/23 02:33:01;;;;;;;37.65;25.33;;;;;;;6.66;100.00;103143.09;5053663;28;20144;-31
2022/03/23 02:35:29;;;;;;;33.00;21.85;;;;;;;6.61;100.00;103151.22;5054105;28;20556;-29
2022/03/23 02:37:57;;;;;;;35.00;22.55;;;;;;;6.59;100.00;103141.44;5054126;28;20136;-32
2022/03/23 02:40:26;;;;;;;31.67;21.25;;;;;;;6.55;100.00;103143.78;5053505;28;20087;-30
2022/03/23 02:42:54;;;;;;;31.48;20.30;;;;;;;6.50;100.00;103144.44;5054155;28;20413;-31
2022/03/23 02:45:22;;;;;;;34.72;24.08;;;;;;;6.48;100.00;103142.94;5053791;28;20037;-35
2022/03/23 02:47:49;;;;;;;35.83;23.90;;;;;;;6.46;100.00;103147.84;5053304;28;20051;-29
2022/03/23 02:50:17;;;;;;;35.45;23.85;;;;;;;6.42;100.00;103141.88;5053700;28;20056;-31
2022/03/23 03:04:04;;;;;;;32.33;20.52;;;;;;;6.35;100.00;103145.75;5053890;28;20052;-32
2022/03/23 03:06:32;;;;;;;33.40;21.17;;;;;;;6.34;100.00;103141.25;5053758;28;20045;-31
2022/03/23 03:09:00;;;;;;;36.83;23.33;;;;;;;6.32;100.00;103149.78;5052764;28;20474;-28
2022/03/23 03:11:29;;;;;;;39.30;24.15;;;;;;;6.31;100.00;103147.22;5053481;28;20044;-34
2022/03/23 03:13:57;;;;;;;30.50;20.08;;;;;;;6.29;100.00;103141.91;5053323;28;20040;-30
2022/03/23 03:16:25;;;;;;;32.60;21.63;;;;;;;6.29;100.00;103135.50;5052562;28;20060;-30
2022/03/23 03:18:53;;;;;;;29.75;19.15;;;;;;;6.26;100.00;103142.31;5053610;28;20041;-31
2022/03/23 03:21:21;;;;;;;33.70;21.30;;;;;;;6.23;100.00;103142.75;5053399;28;20044;-34
2022/03/23 03:23:49;;;;;;;32.10;20.58;;;;;;;6.20;100.00;103137.63;5052558;28;20052;-31
2022/03/23 03:26:19;;;;;;;30.23;20.42;;;;;;;6.17;100.00;103149.16;5053100;28;20037;-31
2022/03/23 03:28:50;;;;;;;38.28;24.60;;;;;;;6.14;100.00;103144.06;5053183;28;20379;-27
2022/03/23 03:31:18;;;;;;;30.40;20.30;;;;;;;6.09;100.00;103153.00;5052811;28;20048;-32
2022/03/23 03:33:46;;;;;;;31.17;20.30;;;;;;;6.05;100.00;103151.72;5053203;28;20494;-34
2022/03/23 03:36:15;;;;;;;27.30;18.38;;;;;;;6.02;100.00;103145.75;5052196;28;20060;-31
2022/03/23 03:38:45;;;;;;;37.50;24.60;;;;;;;5.99;100.00;103148.97;5051864;28;20080;-30
2022/03/23 03:41:12;;;;;;;27.13;18.63;;;;;;;5.95;100.00;103156.00;5052885;28;20052;-34
2022/03/23 03:43:40;;;;;;;26.70;17.15;;;;;;;5.93;100.00;103158.13;5052384;28;20060;-32
2022/03/23 03:46:10;;;;;;;26.73;17.98;;;;;;;5.90;100.00;103153.84;5052914;28;20041;-31
2022/03/23 03:48:40;;;;;;;25.92;17.55;;;;;;;5.88;100.00;103155.94;5052777;28;20411;-33
2022/03/23 03:51:08;;;;;;;26.27;16.58;;;;;;;5.87;100.00;103159.78;5051838;28;20045;-35
2022/03/23 03:53:37;;;;;;;24.30;16.30;;;;;;;5.84;100.00;103154.66;5052582;28;20466;-28
2022/03/23 03:56:08;;;;;;;27.90;18.60;;;;;;;5.84;100.00;103160.19;5047799;28;20589;-29
2022/03/23 03:58:36;;;;;;;28.50;18.92;;;;;;;5.83;100.00;103158.47;5048441;28;20053;-33
2022/03/23 04:01:04;;;;;;;27.00;17.77;;;;;;;5.81;100.00;103169.78;5052602;28;20036;-29
2022/03/23 04:03:34;;;;;;;33.30;22.35;;;;;;;5.80;100.00;103156.97;5052482;28;20408;-29
2022/03/23 04:06:02;;;;;;;30.35;19.20;;;;;;;5.78;100.00;103155.50;5051593;28;20045;-26
2022/03/23 04:08:31;;;;;;;32.08;20.27;;;;;;;5.76;100.00;103161.25;5052476;28;20448;-29
2022/03/23 04:10:58;;;;;;;37.92;23.55;;;;;;;5.72;100.00;103157.22;5051850;28;20040;-25
2022/03/23 04:13:26;;;;;;;31.40;20.50;;;;;;;5.70;100.00;103158.47;5052327;28;20049;-28
2022/03/23 04:15:54;;;;;;;31.65;20.13;;;;;;;5.67;100.00;103159.75;5052361;28;20053;-35
2022/03/23 04:18:22;;;;;;;31.00;20.73;;;;;;;5.65;100.00;103161.88;5040180;28;20053;-33
2022/03/23 04:20:51;;;;;;;29.35;19.95;;;;;;;5.64;100.00;103159.31;5052118;28;20037;-36
2022/03/23 04:23:19;;;;;;;27.58;18.15;;;;;;;5.61;100.00;103160.56;5052192;28;20057;-31
2022/03/23 04:25:47;;;;;;;31.42;20.15;;;;;;;5.59;100.00;103161.88;5051322;28;20047;-35
2022/03/23 04:28:14;;;;;;;29.88;19.75;;;;;;;5.56;100.00;103165.06;5051976;28;20053;-32
2022/03/23 04:30:42;;;;;;;30.58;20.60;;;;;;;5.55;100.00;103166.97;5052097;28;20435;-28
2022/03/23 04:33:10;;;;;;;32.28;19.85;;;;;;;5.53;100.00;103169.09;5050836;28;20470;-30
2022/03/23 04:35:38;;;;;;;29.25;18.92;;;;;;;5.51;100.00;103171.22;5052075;28;20037;-35
2022/03/23 04:38:07;;;;;;;30.92;20.40;;;;;;;5.48;100.00;103166.94;5051948;28;20059;-30
2022/03/23 04:40:36;;;;;;;28.70;19.23;;;;;;;5.47;100.00;103170.78;5051009;28;20048;-28
2022/03/23 04:43:03;;;;;;;32.95;21.27;;;;;;;5.45;100.00;103172.03;5050729;28;20060;-29
2022/03/23 04:45:31;;;;;;;32.20;21.58;;;;;;;5.43;100.00;103176.94;5051528;28;20060;-32
2022/03/23 04:47:59;;;;;;;36.58;23.00;;;;;;;5.41;100.00;103177.13;5051272;28;20045;-34
2022/03/23 04:50:27;;;;;;;31.75;20.65;;;;;;;5.40;100.00;103182.88;5051807;28;20059;-29
2022/03/23 04:52:55;;;;;;;32.40;21.73;;;;;;;5.38;100.00;103174.81;5051765;28;20377;-30
2022/03/23 04:55:24;;;;;;;29.20;19.50;;;;;;;5.36;100.00;103174.16;5050825;28;20478;-29
2022/03/23 04:57:52;;;;;;;30.40;20.42;;;;;;;5.34;100.00;103186.50;5050941;28;20045;-32
2022/03/23 05:00:20;;;;;;;36.13;24.10;;;;;;;5.33;100.00;103180.13;5048855;28;20419;-33
2022/03/23 05:02:49;;;;;;;34.42;21.77;;;;;;;5.35;100.00;103172.47;5049669;28;20118;-32
2022/03/23 05:05:17;;;;;;;30.70;19.50;;;;;;;5.37;100.00;103173.09;5049988;28;20478;-28
2022/03/23 05:07:46;;;;;;;32.83;21.45;;;;;;;5.39;100.00;103172.91;5048855;28;20071;-29
2022/03/23 05:10:15;;;;;;;32.60;21.08;;;;;;;5.38;100.00;103179.50;5050574;28;20135;-31
2022/03/23 05:12:46;;;;;;;32.60;21.15;;;;;;;5.37;100.00;103173.09;5049179;28;20053;-29
2022/03/23 05:15:16;;;;;;;33.05;20.70;;;;;;;5.35;100.00;103174.38;5050158;28;20490;-30
2022/03/23 05:17:45;;;;;;;34.90;21.88;;;;;;;5.32;100.00;103177.56;5051410;28;20052;-33
2022/03/23 05:20:15;;;;;;;32.58;20.92;;;;;;;5.30;100.00;103180.53;5051416;28;20059;-31
2022/03/23 05:22:42;;;;;;;29.08;18.23;;;;;;;5.30;100.00;103182.44;5050442;28;20048;-31
2022/03/23 05:25:13;;;;;;;30.48;19.63;;;;;;;5.29;100.00;103183.50;5046794;28;20057;-27
2022/03/23 05:27:43;;;;;;;39.60;27.05;;;;;;;5.29;100.00;103177.97;5051276;28;20406;-35
2022/03/23 05:30:12;;;;;;;31.20;19.48;;;;;;;5.26;100.00;103176.47;5049044;28;20486;-32
2022/03/23 05:32:41;;;;;;;31.27;20.05;;;;;;;5.25;100.00;103182.19;5045381;28;20045;-31
2022/03/23 05:35:11;;;;;;;33.65;21.70;;;;;;;5.24;100.00;103186.03;5049922;28;20083;-34
2022/03/23 05:37:39;;;;;;;31.50;20.58;;;;;;;5.22;100.00;103185.38;5048319;28;20045;-33
2022/03/23 05:40:10;;;;;;;28.88;18.80;;;;;;;5.19;100.00;103170.91;5049705;28;20063;-29
2022/03/23 05:42:38;;;;;;;26.67;17.40;;;;;;;5.18;100.00;103187.72;5049339;28;20055;-30
2022/03/23 05:45:08;;;;;;;27.58;16.92;;;;;;;5.17;100.00;103186.00;5049749;28;20406;-35
2022/03/23 05:47:37;;;;;;;27.15;18.35;;;;;;;5.15;100.00;103180.69;5048649;28;20056;-28
2022/03/23 05:50:06;;;;;;;23.10;15.18;;;;;;;5.14;100.00;103187.28;5047072;28;20076;-28
2022/03/23 05:52:34;;;;;;;25.38;17.80;;;;;;;5.14;100.00;103186.44;5049984;28;20050;-27
2022/03/23 05:55:02;;;;;;;21.65;14.75;;;;;;;5.14;100.00;103191.97;5050107;28;20048;-31
2022/03/23 05:57:30;;;;;;;23.95;15.90;;;;;;;5.15;100.00;103189.00;5047622;28;20056;-31
2022/03/23 05:59:58;;;;;;;25.67;17.33;;;;;;;5.16;100.00;103192.59;5049669;28;20483;-29
2022/03/23 06:02:27;;;;;;;31.52;20.52;;;;;;;5.16;100.00;103196.22;5049667;28;20502;-30
2022/03/23 06:04:55;;;;;;;26.73;17.52;;;;;;;5.18;100.00;103196.88;5049121;28;20545;-27
2022/03/23 06:07:23;;;;;;;29.20;19.10;;;;;;;5.18;100.00;103196.03;5049833;28;20410;-29
2022/03/23 06:09:50;;;;;;;29.70;18.52;;;;;;;5.20;100.00;103199.41;5049434;28;20045;-32
2022/03/23 06:12:18;;;;;;;36.97;24.75;;;;;;;5.24;100.00;103205.41;5048910;28;20083;-32
2022/03/23 06:14:47;;;;;;;33.25;22.17;;;;;;;5.26;100.00;103197.75;5049799;28;20045;-28
2022/03/23 06:17:14;;;;;;;36.40;22.63;;;;;;;5.29;100.00;103209.25;5049530;28;20045;-29
2022/03/23 06:19:43;;;;;;;31.08;20.17;;;;;;;5.34;100.00;103197.56;5050204;28;20128;-32
2022/03/23 06:22:11;;;;;;;35.88;23.20;;;;;;;5.37;100.00;103208.25;5053363;28;20048;-28
2022/03/23 06:24:43;;;;;;;33.30;22.23;;;;;;;5.39;100.00;103201.44;5052743;28;20064;-26
2022/03/23 06:27:11;;;;;;;32.13;19.90;;;;;;;5.42;100.00;103203.75;5053077;28;20089;-36
2022/03/23 06:29:39;;;;;;;36.72;23.95;;;;;;;5.48;100.00;103213.16;5053244;28;20588;-28
2022/03/23 06:32:08;;;;;;;31.52;20.50;;;;;;;5.52;100.00;103211.69;5052086;28;20068;-31
2022/03/23 06:34:36;;;;;;;35.40;22.15;;;;;;;5.57;100.00;103213.84;5053287;28;20041;-28
2022/03/23 06:37:05;;;;;;;32.80;21.45;;;;;;;5.62;100.00;103217.69;5053145;28;20052;-28
2022/03/23 06:39:33;;;;;;;30.13;19.67;;;;;;;5.67;100.00;103220.69;5052012;28;20044;-36
2022/03/23 06:42:01;;;;;;;35.53;22.65;;;;;;;5.74;100.00;103220.72;5053079;28;20141;-34
2022/03/23 06:44:29;;;;;;;33.45;22.98;;;;;;;5.82;100.00;103212.19;5052833;28;20076;-28
2022/03/23 06:46:57;;;;;;;44.53;29.42;;;;;;;5.94;100.00;103218.88;5052614;28;20402;-31
2022/03/23 06:49:25;;;;;;;48.40;30.90;;;;;;;6.09;100.00;103216.75;5050840;28;20512;-33
2022/03/23 06:51:52;;;;;;;42.35;28.17;;;;;;;6.25;100.00;103222.94;5052800;28;20083;-33
2022/03/23 06:54:21;;;;;;;45.10;28.88;;;;;;;6.40;100.00;103229.13;5051947;28;20044;-34
2022/03/23 06:56:51;;;;;;;48.25;30.40;;;;;;;6.66;100.00;103226.34;5052452;28;20049;-31
2022/03/23 06:59:19;;;;;;;53.72;33.80;;;;;;;7.10;100.00;103225.63;5052549;28;20151;-35
2022/03/23 07:01:47;;;;;;;64.47;39.58;;;;;;;7.67;100.00;103223.88;5051943;28;20426;-31
2022/03/23 07:04:15;;;;;;;63.08;37.83;;;;;;;8.24;100.00;103231.19;5052457;28;20135;-36
2022/03/23 07:06:44;;;;;;;55.85;36.17;;;;;;;8.82;100.00;103235.63;5052451;28;20045;-28
2022/03/23 07:11:58;;;;;;;59.83;38.60;;;;;;;10.07;100.00;103236.00;5052541;28;20067;-34
2022/03/23 07:14:27;;;;;;;57.60;39.35;;;;;;;10.69;100.00;103235.41;5051609;28;20057;-31
2022/03/23 07:16:55;;;;;;;56.92;37.63;;;;;;;11.33;100.00;103233.56;5046355;28;20049;-35
2022/03/23 07:19:23;;;;;;;60.60;40.67;;;;;;;11.94;100.00;103232.03;5047427;28;20045;-34
2022/03/23 07:21:52;;;;;;;64.43;40.20;;;;;;;12.55;100.00;103237.88;5050516;28;20102;-33
2022/03/23 07:24:20;;;;;;;60.40;38.67;;;;;;;13.14;100.00;103241.03;5051326;28;20967;-35
2022/03/23 07:26:49;;;;;;;53.20;37.38;;;;;;;13.68;100.00;103240.09;5051497;28;20045;-31
2022/03/23 07:29:38;;;;;;;49.55;35.67;;;;;;;14.24;100.00;103234.25;5049601;28;20049;-34
2022/03/23 07:32:07;;;;;;;51.40;35.60;;;;;;;14.70;100.00;103239.19;5039418;28;20090;-30
2022/03/23 07:34:35;;;;;;;46.42;32.15;;;;;;;15.20;100.00;103231.34;5050259;28;20041;-38
2022/03/23 07:37:03;;;;;;;48.75;32.65;;;;;;;15.62;99.38;103239.75;5051452;28;20040;-27
2022/03/23 07:39:31;;;;;;;42.35;30.27;;;;;;;15.81;95.27;103243.75;5051157;28;20139;-29
2022/03/23 07:42:00;;;;;;;45.28;30.48;;;;;;;16.10;92.47;103238.50;5051887;28;20077;-33
2022/03/23 07:44:27;;;;;;;40.47;28.88;;;;;;;16.42;88.67;103241.06;5052178;28;20045;-31
2022/03/23 07:46:56;;;;;;;42.25;31.35;;;;;;;16.76;86.67;103238.59;5051902;28;20812;-29
2022/03/23 07:49:24;;;;;;;41.80;31.30;;;;;;;17.15;84.81;103239.66;5051140;28;20136;-31
2022/03/23 07:51:52;;;;;;;38.58;28.92;;;;;;;17.41;82.04;103245.19;5051107;28;20610;-30
2022/03/23 07:54:20;;;;;;;34.80;26.95;;;;;;;17.74;79.16;103249.34;5051953;28;20049;-34
2022/03/23 07:56:48;;;;;;;42.10;28.27;;;;;;;18.05;77.48;103250.84;5050825;28;20049;-34
2022/03/23 07:59:18;;;;;;;37.20;29.00;;;;;;;18.45;74.21;103249.72;5044458;28;20139;-39
2022/03/23 08:01:45;;;;;;;42.97;29.95;;;;;;;18.68;69.95;103247.31;5051727;28;20067;-39
2022/03/23 08:04:15;;;;;;;36.75;27.08;;;;;;;18.97;69.15;103250.19;5050978;28;20118;-34
2022/03/23 08:06:43;;;;;;;35.15;27.25;;;;;;;19.32;67.47;103246.13;5051569;28;20044;-28
2022/03/23 08:09:10;;;;;;;37.20;27.83;;;;;;;19.66;65.10;103251.66;5051660;28;20053;-32
2022/03/23 08:11:42;;;;;;;36.35;27.13;;;;;;;19.58;61.05;103258.88;5050680;28;20457;-29
2022/03/23 08:14:10;;;;;;;37.40;27.55;;;;;;;19.77;60.58;103256.06;5051409;28;20127;-29
2022/03/23 08:16:38;;;;;;;31.35;23.45;;;;;;;20.01;58.85;103254.00;5051663;28;20045;-32
2022/03/23 08:19:05;;;;;;;30.85;23.80;;;;;;;20.25;57.69;103246.28;5050572;28;20056;-35
2022/03/23 08:21:35;;;;;;;32.88;23.90;;;;;;;20.50;55.45;103247.06;5051291;28;20080;-38
2022/03/23 08:24:03;;;;;;;31.13;24.02;;;;;;;20.66;54.75;103259.84;5051336;28;20045;-37
2022/03/23 08:26:31;;;;;;;30.13;22.88;;;;;;;20.89;53.47;103255.19;5050403;28;20455;-33
2022/03/23 08:28:59;;;;;;;32.70;25.23;;;;;;;21.08;50.85;103255.13;5051491;28;20041;-37
2022/03/23 08:31:28;;;;;;;28.98;21.73;;;;;;;21.16;50.42;103248.75;5050686;28;20127;-38
2022/03/23 08:33:56;;;;;;;30.40;22.33;;;;;;;21.43;49.85;103250.78;5051118;28;20037;-33
2022/03/23 08:36:24;;;;;;;30.23;22.85;;;;;;;21.66;47.74;103250.56;5050274;28;20107;-33
2022/03/23 08:38:53;;;;;;;31.15;22.23;;;;;;;21.81;46.84;103248.53;5046614;28;20139;-33
2022/03/23 08:41:22;;;;;;;28.10;22.40;;;;;;;21.73;46.08;103246.47;5051275;28;20080;-34
2022/03/23 08:43:49;;;;;;;29.70;22.17;;;;;;;21.59;46.26;103250.13;5050829;28;20457;-30
2022/03/23 08:46:17;;;;;;;27.67;20.40;;;;;;;21.75;47.05;103249.81;5050169;28;20056;-36
2022/03/23 08:48:45;;;;;;;27.90;21.88;;;;;;;22.12;46.35;103249.56;5050857;28;20415;-34
2022/03/23 08:51:13;;;;;;;25.63;20.42;;;;;;;22.35;44.63;103247.63;5050827;28;20144;-36
2022/03/23 08:53:43;;;;;;;29.25;22.08;;;;;;;22.12;43.86;103252.41;5049938;28;20140;-32
2022/03/23 08:56:13;;;;;;;26.08;20.45;;;;;;;21.89;44.14;103250.63;5044418;28;20154;-38
2022/03/23 08:58:47;;;;;;;25.35;20.10;;;;;;;22.02;43.37;103248.94;5049576;28;20049;-31
2022/03/23 09:01:15;;;;;;;28.17;21.33;;;;;;;21.98;42.37;103255.25;5049716;28;20057;-34
2022/03/23 09:03:44;;;;;;;25.58;20.40;;;;;;;22.03;42.48;103256.31;5050409;28;20055;-34
2022/03/23 09:06:12;;;;;;;29.08;21.60;;;;;;;22.11;41.62;103259.25;5050595;28;20124;-33
2022/03/23 09:08:39;;;;;;;24.40;19.52;;;;;;;22.31;42.29;103250.25;5049761;28;20398;-37
2022/03/23 09:11:07;;;;;;;25.05;19.52;;;;;;;22.64;40.21;103255.69;5050779;28;20064;-34
2022/03/23 09:13:36;;;;;;;26.30;20.27;;;;;;;22.68;39.16;103259.59;5049615;28;20079;-29
2022/03/23 09:16:05;;;;;;;25.23;18.33;;;;;;;22.82;38.73;103263.22;5050541;28;20395;-36
2022/03/23 09:18:32;;;;;;;24.75;19.38;;;;;;;23.07;37.58;103260.88;5050223;28;20052;-39
2022/03/23 09:21:01;;;;;;;25.13;18.05;;;;;;;23.25;36.75;103257.78;5049838;28;20041;-31
2022/03/23 09:23:32;;;;;;;;;;;;;;;23.38;32.83;103260.88;5040141;28;20048;-33
2022/03/23 09:26:01;;;;;;;21.60;15.45;;;;;;;23.51;37.24;103260.75;5050588;28;20030;-33
2022/03/23 09:28:30;;;;;;;25.02;17.83;;;;;;;23.77;35.17;103262.88;5049614;28;20080;-36
2022/03/23 09:31:00;;;;;;;21.80;16.17;;;;;;;23.96;33.74;103254.88;5050402;28;20080;-33
2022/03/23 09:33:28;;;;;;;22.17;16.45;;;;;;;23.84;33.57;103252.66;5046992;28;20045;-30
2022/03/23 09:35:55;;;;;;;23.17;15.45;;;;;;;24.01;33.45;103252.69;5049514;28;20047;-31
2022/03/23 09:38:24;;;;;;;24.15;16.48;;;;;;;24.12;32.19;103247.50;5049843;28;20053;-30
2022/03/23 09:40:53;;;;;;;21.83;15.23;;;;;;;24.47;31.82;103247.53;5049990;28;20044;-29
2022/03/23 09:43:23;;;;;;;18.25;13.93;;;;;;;24.53;30.83;103243.34;5049393;28;20069;-29
2022/03/23 09:45:52;;;;;;;19.02;14.70;;;;;;;24.07;30.27;103255.38;5050303;28;20071;-38
2022/03/23 09:48:25;;;;;;;20.48;14.35;;;;;;;23.86;31.19;103252.31;5041569;28;20049;-35
2022/03/23 09:50:55;;;;;;;15.88;13.40;;;;;;;24.11;30.77;103245.84;5048711;28;20053;-30
2022/03/23 09:53:25;;;;;;;19.30;14.90;;;;;;;24.50;30.51;103247.72;5050455;28;20144;-32
2022/03/23 09:55:54;;;;;;;19.30;14.07;;;;;;;24.87;29.70;103248.16;5052501;28;20048;-30
2022/03/23 09:58:24;;;;;;;18.80;14.25;;;;;;;24.70;29.66;103240.47;5054431;28;20056;-30
2022/03/23 10:00:53;;;;;;;21.52;15.68;;;;;;;24.66;30.16;103237.44;5054101;28;20049;-35
2022/03/23 10:04:08;;;;;;;18.83;13.57;;;;;;;25.11;27.46;103239.06;5053195;28;20143;-38
2022/03/23 10:07:11;;;;;;;20.17;13.57;;;;;;;25.08;24.30;103237.72;5054138;28;20048;-32
2022/03/23 10:10:14;;;;;;;15.70;12.18;;;;;;;25.01;25.27;103243.13;5050361;28;20076;-31
2022/03/23 10:13:24;;;;;;;17.83;12.63;;;;;;;25.19;26.68;103238.19;5045229;28;20053;-29
2022/03/23 10:16:29;;;;;;;20.65;15.82;;;;;;;25.61;27.66;103242.03;4992152;28;20054;-28
2022/03/23 10:18:58;;;;;;;22.65;15.65;;;;;;;25.83;29.25;103250.34;5046409;28;20131;-33
2022/03/23 10:21:32;;;;;;;21.65;16.50;;;;;;;26.08;29.35;103248.50;5053947;28;20083;-34
2022/03/23 10:24:32;;;;;;;21.60;16.60;;;;;;;26.24;28.64;103243.81;5052924;28;20409;-33
2022/03/23 10:27:05;;;;;;;18.55;15.10;;;;;;;26.49;30.04;103252.56;5052049;28;20060;-31
2022/03/23 10:29:32;;;;;;;22.13;17.60;;;;;;;26.48;29.11;103248.88;5053824;28;20081;-38
2022/03/23 10:32:02;;;;;;;21.88;17.73;;;;;;;26.17;29.33;103249.28;5052890;28;20080;-39
2022/03/23 10:34:41;;;;;;;20.45;16.83;;;;;;;26.00;29.08;103243.66;5053501;28;20403;-36
2022/03/23 10:37:11;;;;;;;23.55;17.35;;;;;;;26.17;30.29;103242.72;5053435;28;20152;-31
2022/03/23 10:39:44;;;;;;;23.83;17.42;;;;;;;26.49;29.24;103235.41;5046491;28;20501;-30
2022/03/23 10:42:15;;;;;;;23.77;17.65;;;;;;;26.59;29.40;103240.66;5053371;28;20132;-29
2022/03/23 10:44:44;;;;;;;21.85;15.60;;;;;;;26.73;29.62;103244.09;5053688;28;20087;-30
2022/03/23 10:47:24;;;;;;;25.25;18.88;;;;;;;26.87;28.21;103238.03;5052428;28;21069;-39
2022/03/23 10:49:52;;;;;;;25.42;19.35;;;;;;;26.62;29.21;103242.84;5053103;28;20250;-31
2022/03/23 10:52:22;;;;;;;22.80;18.98;;;;;;;26.54;29.88;103246.66;5052428;28;20509;-30
2022/03/23 10:54:54;;;;;;;24.80;20.73;;;;;;;26.70;29.61;103237.03;5053204;28;20132;-35
2022/03/23 10:57:43;;;;;;;23.95;18.90;;;;;;;26.68;28.39;103230.81;5053123;28;20041;-31
2022/03/23 11:00:16;;;;;;;27.50;20.80;;;;;;;26.62;29.75;103229.34;5051755;28;20056;-30
2022/03/23 11:02:47;;;;;;;21.00;17.25;;;;;;;26.74;29.99;103234.31;5052403;28;20057;-36
2022/03/23 11:05:32;;;;;;;27.35;20.10;;;;;;;26.99;28.96;103236.06;5052426;28;20049;-35
2022/03/23 11:08:09;;;;;;;19.77;16.42;;;;;;;27.16;29.07;103229.31;5051798;28;20069;-37
2022/03/23 11:16:11;;;;;;;22.20;16.50;;;;;;;26.97;27.76;103229.03;5052774;28;20494;-37
2022/03/23 11:18:40;;;;;;;23.70;17.05;;;;;;;26.57;27.94;103228.75;5052626;28;20099;-32
2022/03/23 11:21:08;;;;;;;24.05;18.00;;;;;;;26.53;27.55;103230.66;5051610;28;20080;-32
2022/03/23 11:23:38;;;;;;;19.13;15.18;;;;;;;26.40;27.07;103226.88;5051288;28;20049;-31
2022/03/23 11:26:08;;;;;;;20.40;14.53;;;;;;;26.39;27.21;103225.19;5052784;28;20077;-30
2022/03/23 11:28:40;;;;;;;17.95;15.48;;;;;;;26.35;27.26;103222.22;5051606;28;20590;-39
2022/03/23 11:31:09;;;;;;;20.60;17.23;;;;;;;26.34;27.25;103229.13;5052388;28;20139;-29
2022/03/23 11:33:38;;;;;;;19.83;14.68;;;;;;;26.49;27.42;103215.34;5052125;28;20044;-30
2022/03/23 11:36:08;;;;;;;17.30;13.85;;;;;;;26.56;27.02;103227.91;5051269;28;20418;-38
2022/03/23 11:38:38;;;;;;;22.95;17.45;;;;;;;26.64;26.55;103215.53;5051804;28;20078;-32
2022/03/23 11:41:08;;;;;;;26.67;17.47;;;;;;;26.49;26.71;103219.06;5050704;28;20122;-31